sensor_id;sensor_type;location;lat;lon;timestamp;P1;durP1;ratioP1;P2;durP2;ratioP2
46090;SDS011;31826;53.572;10.170;2022-12-20T00:01:10;14.77;;;6.35;;
46090;SDS011;31826;53.572;10.170;2022-12-20T00:03:41;14.80;;;6.22;;
46090;SDS011;31826;53.572;10.170;2022-12-20T00:06:08;14.52;;;6.55;;
46090;SDS011;31826;53.572;10.170;2022-12-20T00:08:35;14.85;;;6.30;;
46090;SDS011;31826;53.572;10.170;2022-12-20T00:11:02;15.95;;;6.80;;
46090;SDS011;31826;53.572;10.170;2022-12-20T00:13:30;17.52;;;6.90;;
46090;SDS011;31826;53.572;10.170;2022-12-20T00:18:36;14.52;;;7.00;;
46090;SDS011;31826;53.572;10.170;2022-12-20T00:21:03;15.17;;;7.17;;
46090;SDS011;31826;53.572;10.170;2022-12-20T00:23:30;13.23;;;6.07;;
46090;SDS011;31826;53.572;10.170;2022-12-20T00:26:15;13.45;;;6.57;;
46090;SDS011;31826;53.572;10.170;2022-12-20T00:28:42;13.77;;;6.40;;
46090;SDS011;31826;53.572;10.170;2022-12-20T00:31:09;14.88;;;5.85;;
46090;SDS011;31826;53.572;10.170;2022-12-20T00:33:38;14.88;;;6.50;;
46090;SDS011;31826;53.572;10.170;2022-12-20T00:36:05;15.50;;;7.05;;
46090;SDS011;31826;53.572;10.170;2022-12-20T00:38:32;15.90;;;6.50;;
46090;SDS011;31826;53.572;10.170;2022-12-20T00:41:05;14.13;;;6.07;;
46090;SDS011;31826;53.572;10.170;2022-12-20T00:43:33;12.63;;;6.10;;
46090;SDS011;31826;53.572;10.170;2022-12-20T00:45:59;14.52;;;5.97;;
46090;SDS011;31826;53.572;10.170;2022-12-20T00:48:26;12.55;;;6.22;;
46090;SDS011;31826;53.572;10.170;2022-12-20T00:50:56;12.60;;;6.63;;
46090;SDS011;31826;53.572;10.170;2022-12-20T00:53:26;13.60;;;5.90;;
46090;SDS011;31826;53.572;10.170;2022-12-20T00:55:52;13.83;;;6.03;;
46090;SDS011;31826;53.572;10.170;2022-12-20T00:58:18;14.70;;;6.10;;
46090;SDS011;31826;53.572;10.170;2022-12-20T01:00:44;15.07;;;6.27;;
46090;SDS011;31826;53.572;10.170;2022-12-20T01:03:10;15.30;;;6.27;;
46090;SDS011;31826;53.572;10.170;2022-12-20T01:05:36;12.63;;;5.90;;
46090;SDS011;31826;53.572;10.170;2022-12-20T01:08:03;12.93;;;6.03;;
46090;SDS011;31826;53.572;10.170;2022-12-20T01:10:29;12.70;;;5.83;;
46090;SDS011;31826;53.572;10.170;2022-12-20T01:12:55;13.53;;;6.00;;
46090;SDS011;31826;53.572;10.170;2022-12-20T01:15:21;11.98;;;6.00;;
46090;SDS011;31826;53.572;10.170;2022-12-20T01:17:47;16.60;;;6.53;;
46090;SDS011;31826;53.572;10.170;2022-12-20T01:20:14;12.80;;;5.68;;
46090;SDS011;31826;53.572;10.170;2022-12-20T01:22:39;15.70;;;6.10;;
46090;SDS011;31826;53.572;10.170;2022-12-20T01:25:05;13.88;;;6.63;;
46090;SDS011;31826;53.572;10.170;2022-12-20T01:27:31;15.25;;;5.80;;
46090;SDS011;31826;53.572;10.170;2022-12-20T01:29:57;13.52;;;6.03;;
46090;SDS011;31826;53.572;10.170;2022-12-20T01:32:23;13.27;;;6.00;;
46090;SDS011;31826;53.572;10.170;2022-12-20T01:34:49;13.85;;;5.90;;
46090;SDS011;31826;53.572;10.170;2022-12-20T01:37:14;13.20;;;5.88;;
46090;SDS011;31826;53.572;10.170;2022-12-20T01:39:40;13.60;;;6.13;;
46090;SDS011;31826;53.572;10.170;2022-12-20T01:42:08;15.77;;;5.95;;
46090;SDS011;31826;53.572;10.170;2022-12-20T01:47:06;14.20;;;6.32;;
46090;SDS011;31826;53.572;10.170;2022-12-20T01:49:37;13.40;;;5.67;;
46090;SDS011;31826;53.572;10.170;2022-12-20T01:52:20;15.55;;;6.25;;
46090;SDS011;31826;53.572;10.170;2022-12-20T01:55:14;12.80;;;5.80;;
46090;SDS011;31826;53.572;10.170;2022-12-20T01:57:54;14.00;;;6.00;;
46090;SDS011;31826;53.572;10.170;2022-12-20T02:00:25;15.57;;;6.18;;
46090;SDS011;31826;53.572;10.170;2022-12-20T02:02:51;12.73;;;6.15;;
46090;SDS011;31826;53.572;10.170;2022-12-20T02:05:22;14.52;;;6.40;;
46090;SDS011;31826;53.572;10.170;2022-12-20T02:07:49;14.02;;;6.03;;
46090;SDS011;31826;53.572;10.170;2022-12-20T02:10:18;11.70;;;5.43;;
46090;SDS011;31826;53.572;10.170;2022-12-20T02:12:46;12.55;;;5.80;;
46090;SDS011;31826;53.572;10.170;2022-12-20T02:15:31;12.57;;;5.90;;
46090;SDS011;31826;53.572;10.170;2022-12-20T02:31:59;12.98;;;5.50;;
46090;SDS011;31826;53.572;10.170;2022-12-20T02:34:27;18.80;;;6.00;;
46090;SDS011;31826;53.572;10.170;2022-12-20T02:36:56;12.43;;;5.55;;
46090;SDS011;31826;53.572;10.170;2022-12-20T02:39:22;10.37;;;5.07;;
46090;SDS011;31826;53.572;10.170;2022-12-20T02:42:11;13.70;;;5.32;;
46090;SDS011;31826;53.572;10.170;2022-12-20T02:44:38;12.65;;;5.63;;
46090;SDS011;31826;53.572;10.170;2022-12-20T02:47:32;13.30;;;5.47;;
46090;SDS011;31826;53.572;10.170;2022-12-20T02:50:05;12.90;;;5.45;;
46090;SDS011;31826;53.572;10.170;2022-12-20T02:52:32;14.63;;;5.77;;
46090;SDS011;31826;53.572;10.170;2022-12-20T02:54:59;14.63;;;5.80;;
46090;SDS011;31826;53.572;10.170;2022-12-20T03:00:10;12.00;;;4.68;;
46090;SDS011;31826;53.572;10.170;2022-12-20T03:02:39;12.15;;;5.22;;
46090;SDS011;31826;53.572;10.170;2022-12-20T03:05:25;13.23;;;6.15;;
46090;SDS011;31826;53.572;10.170;2022-12-20T03:07:52;12.63;;;5.43;;
46090;SDS011;31826;53.572;10.170;2022-12-20T03:10:18;11.20;;;4.90;;
46090;SDS011;31826;53.572;10.170;2022-12-20T03:12:44;11.00;;;5.35;;
46090;SDS011;31826;53.572;10.170;2022-12-20T03:15:10;12.40;;;5.40;;
46090;SDS011;31826;53.572;10.170;2022-12-20T03:17:36;11.68;;;4.63;;
46090;SDS011;31826;53.572;10.170;2022-12-20T03:20:02;12.55;;;5.60;;
46090;SDS011;31826;53.572;10.170;2022-12-20T03:22:30;10.77;;;4.77;;
46090;SDS011;31826;53.572;10.170;2022-12-20T03:24:57;11.40;;;5.15;;
46090;SDS011;31826;53.572;10.170;2022-12-20T03:27:23;12.73;;;5.03;;
46090;SDS011;31826;53.572;10.170;2022-12-20T03:29:51;11.55;;;5.35;;
46090;SDS011;31826;53.572;10.170;2022-12-20T03:32:17;12.82;;;5.43;;
46090;SDS011;31826;53.572;10.170;2022-12-20T03:34:42;11.13;;;4.90;;
46090;SDS011;31826;53.572;10.170;2022-12-20T03:37:08;12.43;;;5.13;;
46090;SDS011;31826;53.572;10.170;2022-12-20T03:39:34;10.95;;;4.93;;
46090;SDS011;31826;53.572;10.170;2022-12-20T03:42:00;11.38;;;5.45;;
46090;SDS011;31826;53.572;10.170;2022-12-20T03:44:25;10.35;;;4.88;;
46090;SDS011;31826;53.572;10.170;2022-12-20T03:46:51;10.48;;;4.82;;
46090;SDS011;31826;53.572;10.170;2022-12-20T03:49:17;9.90;;;4.68;;
46090;SDS011;31826;53.572;10.170;2022-12-20T03:51:42;12.30;;;5.13;;
46090;SDS011;31826;53.572;10.170;2022-12-20T03:54:08;12.40;;;5.57;;
46090;SDS011;31826;53.572;10.170;2022-12-20T03:56:34;10.50;;;4.47;;
46090;SDS011;31826;53.572;10.170;2022-12-20T03:59:00;12.17;;;5.20;;
46090;SDS011;31826;53.572;10.170;2022-12-20T04:01:26;11.57;;;4.45;;
46090;SDS011;31826;53.572;10.170;2022-12-20T04:03:53;11.40;;;4.55;;
46090;SDS011;31826;53.572;10.170;2022-12-20T04:06:20;10.03;;;4.63;;
46090;SDS011;31826;53.572;10.170;2022-12-20T04:08:47;8.82;;;4.10;;
46090;SDS011;31826;53.572;10.170;2022-12-20T04:11:13;9.73;;;4.88;;
46090;SDS011;31826;53.572;10.170;2022-12-20T04:13:43;9.80;;;4.40;;
46090;SDS011;31826;53.572;10.170;2022-12-20T04:16:10;10.32;;;4.57;;
46090;SDS011;31826;53.572;10.170;2022-12-20T04:18:36;12.10;;;5.38;;
46090;SDS011;31826;53.572;10.170;2022-12-20T04:21:02;12.70;;;5.43;;
46090;SDS011;31826;53.572;10.170;2022-12-20T04:23:28;11.13;;;5.10;;
46090;SDS011;31826;53.572;10.170;2022-12-20T04:25:54;10.77;;;4.80;;
46090;SDS011;31826;53.572;10.170;2022-12-20T04:28:20;11.23;;;4.67;;
46090;SDS011;31826;53.572;10.170;2022-12-20T04:30:45;10.43;;;4.75;;
46090;SDS011;31826;53.572;10.170;2022-12-20T04:33:11;13.23;;;6.07;;
46090;SDS011;31826;53.572;10.170;2022-12-20T04:35:37;13.90;;;5.80;;
46090;SDS011;31826;53.572;10.170;2022-12-20T04:38:02;12.10;;;5.63;;
46090;SDS011;31826;53.572;10.170;2022-12-20T04:40:28;11.68;;;5.82;;
46090;SDS011;31826;53.572;10.170;2022-12-20T04:42:54;13.80;;;5.68;;
46090;SDS011;31826;53.572;10.170;2022-12-20T04:45:20;11.35;;;5.40;;
46090;SDS011;31826;53.572;10.170;2022-12-20T04:47:45;12.98;;;5.18;;
46090;SDS011;31826;53.572;10.170;2022-12-20T04:50:11;12.87;;;6.03;;
46090;SDS011;31826;53.572;10.170;2022-12-20T04:52:37;11.93;;;5.70;;
46090;SDS011;31826;53.572;10.170;2022-12-20T04:55:21;12.18;;;5.45;;
46090;SDS011;31826;53.572;10.170;2022-12-20T04:57:47;13.73;;;5.82;;
46090;SDS011;31826;53.572;10.170;2022-12-20T05:00:13;12.90;;;5.53;;
46090;SDS011;31826;53.572;10.170;2022-12-20T05:02:39;14.02;;;6.03;;
46090;SDS011;31826;53.572;10.170;2022-12-20T05:05:05;14.50;;;5.85;;
46090;SDS011;31826;53.572;10.170;2022-12-20T05:07:31;12.20;;;5.80;;
46090;SDS011;31826;53.572;10.170;2022-12-20T05:09:57;10.83;;;5.53;;
46090;SDS011;31826;53.572;10.170;2022-12-20T05:12:23;14.20;;;6.50;;
46090;SDS011;31826;53.572;10.170;2022-12-20T05:14:48;14.50;;;6.07;;
46090;SDS011;31826;53.572;10.170;2022-12-20T05:17:14;11.90;;;5.67;;
46090;SDS011;31826;53.572;10.170;2022-12-20T05:19:40;13.07;;;5.72;;
46090;SDS011;31826;53.572;10.170;2022-12-20T05:22:05;14.20;;;6.25;;
46090;SDS011;31826;53.572;10.170;2022-12-20T05:24:49;14.13;;;5.90;;
46090;SDS011;31826;53.572;10.170;2022-12-20T05:27:33;14.60;;;5.53;;
46090;SDS011;31826;53.572;10.170;2022-12-20T05:29:59;15.53;;;6.13;;
46090;SDS011;31826;53.572;10.170;2022-12-20T05:32:25;19.10;;;6.97;;
46090;SDS011;31826;53.572;10.170;2022-12-20T05:34:51;18.60;;;6.60;;
46090;SDS011;31826;53.572;10.170;2022-12-20T05:37:16;15.27;;;6.80;;
46090;SDS011;31826;53.572;10.170;2022-12-20T05:39:42;14.87;;;6.33;;
46090;SDS011;31826;53.572;10.170;2022-12-20T05:42:08;15.95;;;6.38;;
46090;SDS011;31826;53.572;10.170;2022-12-20T05:44:33;16.02;;;7.07;;
46090;SDS011;31826;53.572;10.170;2022-12-20T05:46:59;15.50;;;6.80;;
46090;SDS011;31826;53.572;10.170;2022-12-20T05:49:25;15.93;;;6.78;;
46090;SDS011;31826;53.572;10.170;2022-12-20T05:51:50;14.07;;;6.88;;
46090;SDS011;31826;53.572;10.170;2022-12-20T05:54:16;16.10;;;7.03;;
46090;SDS011;31826;53.572;10.170;2022-12-20T05:56:42;16.47;;;7.23;;
46090;SDS011;31826;53.572;10.170;2022-12-20T05:59:07;15.50;;;6.73;;
46090;SDS011;31826;53.572;10.170;2022-12-20T06:01:33;16.00;;;7.77;;
46090;SDS011;31826;53.572;10.170;2022-12-20T06:03:59;17.40;;;8.27;;
46090;SDS011;31826;53.572;10.170;2022-12-20T06:06:24;17.15;;;7.22;;
46090;SDS011;31826;53.572;10.170;2022-12-20T06:08:50;17.42;;;7.30;;
46090;SDS011;31826;53.572;10.170;2022-12-20T06:11:16;16.73;;;7.18;;
46090;SDS011;31826;53.572;10.170;2022-12-20T06:13:42;17.95;;;7.75;;
46090;SDS011;31826;53.572;10.170;2022-12-20T06:16:07;18.25;;;7.80;;
46090;SDS011;31826;53.572;10.170;2022-12-20T06:18:33;17.98;;;7.10;;
46090;SDS011;31826;53.572;10.170;2022-12-20T06:20:59;15.95;;;6.95;;
46090;SDS011;31826;53.572;10.170;2022-12-20T06:23:26;17.13;;;7.68;;
46090;SDS011;31826;53.572;10.170;2022-12-20T06:25:51;20.67;;;7.28;;
46090;SDS011;31826;53.572;10.170;2022-12-20T06:28:17;18.38;;;8.05;;
46090;SDS011;31826;53.572;10.170;2022-12-20T06:30:52;18.27;;;7.55;;
46090;SDS011;31826;53.572;10.170;2022-12-20T06:33:18;18.83;;;8.33;;
46090;SDS011;31826;53.572;10.170;2022-12-20T06:35:44;20.77;;;8.35;;
46090;SDS011;31826;53.572;10.170;2022-12-20T06:38:10;18.92;;;8.05;;
46090;SDS011;31826;53.572;10.170;2022-12-20T06:40:36;15.55;;;7.47;;
46090;SDS011;31826;53.572;10.170;2022-12-20T06:43:02;18.23;;;8.23;;
46090;SDS011;31826;53.572;10.170;2022-12-20T06:45:28;18.10;;;7.78;;
46090;SDS011;31826;53.572;10.170;2022-12-20T06:47:53;16.60;;;7.30;;
46090;SDS011;31826;53.572;10.170;2022-12-20T06:50:21;18.23;;;8.15;;
46090;SDS011;31826;53.572;10.170;2022-12-20T06:52:47;17.47;;;7.87;;
46090;SDS011;31826;53.572;10.170;2022-12-20T06:55:12;16.40;;;7.10;;
46090;SDS011;31826;53.572;10.170;2022-12-20T06:57:38;16.33;;;7.37;;
46090;SDS011;31826;53.572;10.170;2022-12-20T07:00:04;15.77;;;7.33;;
46090;SDS011;31826;53.572;10.170;2022-12-20T07:02:32;18.58;;;7.63;;
46090;SDS011;31826;53.572;10.170;2022-12-20T07:04:58;16.95;;;7.22;;
46090;SDS011;31826;53.572;10.170;2022-12-20T07:07:24;16.67;;;7.15;;
46090;SDS011;31826;53.572;10.170;2022-12-20T07:09:50;17.33;;;7.82;;
46090;SDS011;31826;53.572;10.170;2022-12-20T07:12:15;14.15;;;7.13;;
46090;SDS011;31826;53.572;10.170;2022-12-20T07:14:41;16.05;;;7.43;;
46090;SDS011;31826;53.572;10.170;2022-12-20T07:17:07;16.58;;;7.43;;
46090;SDS011;31826;53.572;10.170;2022-12-20T07:19:33;18.65;;;7.85;;
46090;SDS011;31826;53.572;10.170;2022-12-20T07:22:00;18.85;;;8.27;;
46090;SDS011;31826;53.572;10.170;2022-12-20T07:24:26;15.55;;;7.18;;
46090;SDS011;31826;53.572;10.170;2022-12-20T07:26:52;16.42;;;7.97;;
46090;SDS011;31826;53.572;10.170;2022-12-20T07:29:17;18.93;;;7.40;;
46090;SDS011;31826;53.572;10.170;2022-12-20T07:31:43;16.93;;;8.23;;
46090;SDS011;31826;53.572;10.170;2022-12-20T07:34:09;16.60;;;7.57;;
46090;SDS011;31826;53.572;10.170;2022-12-20T07:36:35;17.70;;;8.57;;
46090;SDS011;31826;53.572;10.170;2022-12-20T07:39:01;17.00;;;8.25;;
46090;SDS011;31826;53.572;10.170;2022-12-20T07:41:27;17.20;;;7.85;;
46090;SDS011;31826;53.572;10.170;2022-12-20T07:43:52;18.17;;;8.38;;
46090;SDS011;31826;53.572;10.170;2022-12-20T07:46:18;19.17;;;8.80;;
46090;SDS011;31826;53.572;10.170;2022-12-20T07:48:44;19.08;;;8.88;;
46090;SDS011;31826;53.572;10.170;2022-12-20T07:51:27;20.03;;;8.10;;
46090;SDS011;31826;53.572;10.170;2022-12-20T07:54:12;19.40;;;8.87;;
46090;SDS011;31826;53.572;10.170;2022-12-20T07:56:42;19.48;;;7.88;;
46090;SDS011;31826;53.572;10.170;2022-12-20T07:59:11;18.63;;;8.67;;
46090;SDS011;31826;53.572;10.170;2022-12-20T08:01:40;18.85;;;9.05;;
46090;SDS011;31826;53.572;10.170;2022-12-20T08:04:20;18.60;;;8.95;;
46090;SDS011;31826;53.572;10.170;2022-12-20T08:06:49;21.67;;;8.85;;
46090;SDS011;31826;53.572;10.170;2022-12-20T08:09:18;19.20;;;9.35;;
46090;SDS011;31826;53.572;10.170;2022-12-20T08:11:45;19.05;;;8.30;;
46090;SDS011;31826;53.572;10.170;2022-12-20T08:14:12;18.80;;;8.45;;
46090;SDS011;31826;53.572;10.170;2022-12-20T08:16:39;18.77;;;8.40;;
46090;SDS011;31826;53.572;10.170;2022-12-20T08:19:05;18.23;;;8.13;;
46090;SDS011;31826;53.572;10.170;2022-12-20T08:21:31;18.60;;;7.93;;
46090;SDS011;31826;53.572;10.170;2022-12-20T08:23:57;19.40;;;8.40;;
46090;SDS011;31826;53.572;10.170;2022-12-20T08:26:22;19.80;;;9.10;;
46090;SDS011;31826;53.572;10.170;2022-12-20T08:28:49;20.00;;;9.00;;
46090;SDS011;31826;53.572;10.170;2022-12-20T08:31:14;19.60;;;8.13;;
46090;SDS011;31826;53.572;10.170;2022-12-20T08:33:40;20.92;;;9.40;;
46090;SDS011;31826;53.572;10.170;2022-12-20T08:36:07;20.88;;;9.52;;
46090;SDS011;31826;53.572;10.170;2022-12-20T08:38:34;18.20;;;8.48;;
46090;SDS011;31826;53.572;10.170;2022-12-20T08:41:04;17.13;;;7.83;;
46090;SDS011;31826;53.572;10.170;2022-12-20T08:43:35;21.13;;;8.68;;
46090;SDS011;31826;53.572;10.170;2022-12-20T08:46:02;20.55;;;8.98;;
46090;SDS011;31826;53.572;10.170;2022-12-20T08:48:28;18.40;;;8.30;;
46090;SDS011;31826;53.572;10.170;2022-12-20T08:50:57;19.27;;;8.50;;
46090;SDS011;31826;53.572;10.170;2022-12-20T08:53:25;18.70;;;8.57;;
46090;SDS011;31826;53.572;10.170;2022-12-20T08:55:52;17.95;;;8.30;;
46090;SDS011;31826;53.572;10.170;2022-12-20T08:58:18;18.92;;;8.65;;
46090;SDS011;31826;53.572;10.170;2022-12-20T09:00:45;21.08;;;9.40;;
46090;SDS011;31826;53.572;10.170;2022-12-20T09:03:11;20.38;;;9.32;;
46090;SDS011;31826;53.572;10.170;2022-12-20T09:05:44;18.98;;;9.00;;
46090;SDS011;31826;53.572;10.170;2022-12-20T09:08:11;19.27;;;8.75;;
46090;SDS011;31826;53.572;10.170;2022-12-20T09:10:38;18.42;;;7.90;;
46090;SDS011;31826;53.572;10.170;2022-12-20T09:13:03;19.88;;;9.00;;
46090;SDS011;31826;53.572;10.170;2022-12-20T09:15:29;17.92;;;7.63;;
46090;SDS011;31826;53.572;10.170;2022-12-20T09:17:55;19.25;;;8.35;;
46090;SDS011;31826;53.572;10.170;2022-12-20T09:20:22;21.37;;;9.00;;
46090;SDS011;31826;53.572;10.170;2022-12-20T09:22:47;18.50;;;8.20;;
46090;SDS011;31826;53.572;10.170;2022-12-20T09:25:13;19.13;;;8.85;;
46090;SDS011;31826;53.572;10.170;2022-12-20T09:27:39;17.38;;;8.23;;
46090;SDS011;31826;53.572;10.170;2022-12-20T09:30:05;16.13;;;7.65;;
46090;SDS011;31826;53.572;10.170;2022-12-20T09:32:31;15.82;;;7.72;;
46090;SDS011;31826;53.572;10.170;2022-12-20T09:34:57;20.03;;;8.53;;
46090;SDS011;31826;53.572;10.170;2022-12-20T09:37:22;16.55;;;8.07;;
46090;SDS011;31826;53.572;10.170;2022-12-20T09:39:48;17.25;;;8.30;;
46090;SDS011;31826;53.572;10.170;2022-12-20T09:42:23;16.58;;;7.80;;
46090;SDS011;31826;53.572;10.170;2022-12-20T09:44:51;15.10;;;7.53;;
46090;SDS011;31826;53.572;10.170;2022-12-20T09:47:22;16.67;;;7.00;;
46090;SDS011;31826;53.572;10.170;2022-12-20T09:49:51;14.93;;;6.97;;
46090;SDS011;31826;53.572;10.170;2022-12-20T09:55:07;15.02;;;6.78;;
46090;SDS011;31826;53.572;10.170;2022-12-20T10:01:16;14.63;;;6.68;;
46090;SDS011;31826;53.572;10.170;2022-12-20T10:03:44;15.05;;;6.78;;
46090;SDS011;31826;53.572;10.170;2022-12-20T10:17:03;15.07;;;6.72;;
46090;SDS011;31826;53.572;10.170;2022-12-20T10:22:29;16.15;;;6.95;;
46090;SDS011;31826;53.572;10.170;2022-12-20T10:25:22;21.65;;;7.22;;
46090;SDS011;31826;53.572;10.170;2022-12-20T10:27:54;14.98;;;6.72;;
46090;SDS011;31826;53.572;10.170;2022-12-20T10:30:24;17.03;;;6.97;;
46090;SDS011;31826;53.572;10.170;2022-12-20T10:32:52;15.40;;;7.07;;
46090;SDS011;31826;53.572;10.170;2022-12-20T10:35:24;15.40;;;7.05;;
46090;SDS011;31826;53.572;10.170;2022-12-20T10:37:58;15.52;;;6.68;;
46090;SDS011;31826;53.572;10.170;2022-12-20T10:43:02;15.20;;;7.43;;
46090;SDS011;31826;53.572;10.170;2022-12-20T10:45:35;17.33;;;7.43;;
46090;SDS011;31826;53.572;10.170;2022-12-20T10:48:22;16.23;;;6.80;;
46090;SDS011;31826;53.572;10.170;2022-12-20T10:53:35;13.85;;;6.40;;
46090;SDS011;31826;53.572;10.170;2022-12-20T10:56:21;13.27;;;6.15;;
46090;SDS011;31826;53.572;10.170;2022-12-20T10:58:58;14.10;;;6.45;;
46090;SDS011;31826;53.572;10.170;2022-12-20T11:01:27;14.40;;;6.53;;
46090;SDS011;31826;53.572;10.170;2022-12-20T11:06:43;14.45;;;5.72;;
46090;SDS011;31826;53.572;10.170;2022-12-20T11:14:34;14.35;;;6.47;;
46090;SDS011;31826;53.572;10.170;2022-12-20T11:17:14;13.77;;;6.63;;
46090;SDS011;31826;53.572;10.170;2022-12-20T11:25:42;13.07;;;5.95;;
46090;SDS011;31826;53.572;10.170;2022-12-20T11:28:34;12.53;;;6.30;;
46090;SDS011;31826;53.572;10.170;2022-12-20T11:31:27;12.95;;;5.43;;
46090;SDS011;31826;53.572;10.170;2022-12-20T11:45:17;13.00;;;5.70;;
46090;SDS011;31826;53.572;10.170;2022-12-20T11:50:48;14.77;;;6.38;;
46090;SDS011;31826;53.572;10.170;2022-12-20T11:59:06;14.13;;;6.75;;
46090;SDS011;31826;53.572;10.170;2022-12-20T12:01:42;11.27;;;5.78;;
46090;SDS011;31826;53.572;10.170;2022-12-20T12:04:19;11.60;;;5.78;;
46090;SDS011;31826;53.572;10.170;2022-12-20T12:06:55;16.03;;;6.17;;
46090;SDS011;31826;53.572;10.170;2022-12-20T12:09:37;12.95;;;6.15;;
46090;SDS011;31826;53.572;10.170;2022-12-20T12:12:23;12.23;;;6.20;;
46090;SDS011;31826;53.572;10.170;2022-12-20T12:17:46;12.87;;;5.93;;
46090;SDS011;31826;53.572;10.170;2022-12-20T12:23:12;13.80;;;5.82;;
46090;SDS011;31826;53.572;10.170;2022-12-20T12:25:40;11.13;;;5.10;;
46090;SDS011;31826;53.572;10.170;2022-12-20T12:28:08;13.07;;;6.10;;
46090;SDS011;31826;53.572;10.170;2022-12-20T12:30:38;10.52;;;5.43;;
46090;SDS011;31826;53.572;10.170;2022-12-20T12:33:11;11.60;;;5.30;;
46090;SDS011;31826;53.572;10.170;2022-12-20T12:41:33;13.63;;;5.47;;
46090;SDS011;31826;53.572;10.170;2022-12-20T12:46:57;17.70;;;5.60;;
46090;SDS011;31826;53.572;10.170;2022-12-20T12:49:26;12.23;;;5.45;;
46090;SDS011;31826;53.572;10.170;2022-12-20T12:51:55;11.40;;;5.47;;
46090;SDS011;31826;53.572;10.170;2022-12-20T12:54:26;12.85;;;6.07;;
46090;SDS011;31826;53.572;10.170;2022-12-20T12:57:01;10.73;;;5.35;;
46090;SDS011;31826;53.572;10.170;2022-12-20T12:59:46;14.73;;;6.18;;
46090;SDS011;31826;53.572;10.170;2022-12-20T13:07:25;12.52;;;6.03;;
46090;SDS011;31826;53.572;10.170;2022-12-20T13:20:25;18.73;;;6.90;;
46090;SDS011;31826;53.572;10.170;2022-12-20T13:25:34;13.23;;;6.43;;
46090;SDS011;31826;53.572;10.170;2022-12-20T13:30:47;14.70;;;6.50;;
46090;SDS011;31826;53.572;10.170;2022-12-20T13:33:40;15.68;;;7.15;;
46090;SDS011;31826;53.572;10.170;2022-12-20T13:36:30;14.18;;;6.35;;
46090;SDS011;31826;53.572;10.170;2022-12-20T13:38:58;12.75;;;5.78;;
46090;SDS011;31826;53.572;10.170;2022-12-20T13:41:29;13.90;;;5.77;;
46090;SDS011;31826;53.572;10.170;2022-12-20T13:46:51;13.18;;;6.00;;
46090;SDS011;31826;53.572;10.170;2022-12-20T13:52:35;13.03;;;5.97;;
46090;SDS011;31826;53.572;10.170;2022-12-20T13:54:57;11.73;;;5.70;;
46090;SDS011;31826;53.572;10.170;2022-12-20T13:57:27;14.65;;;5.70;;
46090;SDS011;31826;53.572;10.170;2022-12-20T13:59:57;13.18;;;5.57;;
46090;SDS011;31826;53.572;10.170;2022-12-20T14:02:26;15.60;;;5.95;;
46090;SDS011;31826;53.572;10.170;2022-12-20T14:05:04;11.68;;;5.47;;
46090;SDS011;31826;53.572;10.170;2022-12-20T14:07:37;11.88;;;5.75;;
46090;SDS011;31826;53.572;10.170;2022-12-20T14:10:04;10.87;;;5.00;;
46090;SDS011;31826;53.572;10.170;2022-12-20T14:12:50;13.60;;;5.35;;
46090;SDS011;31826;53.572;10.170;2022-12-20T14:17:56;12.38;;;5.07;;
46090;SDS011;31826;53.572;10.170;2022-12-20T14:20:30;11.23;;;5.17;;
46090;SDS011;31826;53.572;10.170;2022-12-20T14:23:04;13.20;;;5.28;;
46090;SDS011;31826;53.572;10.170;2022-12-20T14:25:41;11.65;;;4.72;;
46090;SDS011;31826;53.572;10.170;2022-12-20T14:28:15;11.98;;;4.55;;
46090;SDS011;31826;53.572;10.170;2022-12-20T14:30:48;10.15;;;4.63;;
46090;SDS011;31826;53.572;10.170;2022-12-20T14:33:23;10.98;;;4.72;;
46090;SDS011;31826;53.572;10.170;2022-12-20T14:36:09;11.23;;;4.90;;
46090;SDS011;31826;53.572;10.170;2022-12-20T14:38:47;12.30;;;5.00;;
46090;SDS011;31826;53.572;10.170;2022-12-20T14:41:36;11.98;;;5.35;;
46090;SDS011;31826;53.572;10.170;2022-12-20T14:46:35;11.15;;;5.28;;
46090;SDS011;31826;53.572;10.170;2022-12-20T14:51:40;11.82;;;5.32;;
46090;SDS011;31826;53.572;10.170;2022-12-20T14:54:05;15.25;;;6.20;;
46090;SDS011;31826;53.572;10.170;2022-12-20T14:56:37;14.07;;;6.37;;
46090;SDS011;31826;53.572;10.170;2022-12-20T14:59:15;15.07;;;5.67;;
46090;SDS011;31826;53.572;10.170;2022-12-20T15:01:48;13.83;;;5.67;;
46090;SDS011;31826;53.572;10.170;2022-12-20T15:04:22;10.75;;;5.03;;
46090;SDS011;31826;53.572;10.170;2022-12-20T15:06:48;13.05;;;5.63;;
46090;SDS011;31826;53.572;10.170;2022-12-20T15:09:16;10.50;;;4.88;;
46090;SDS011;31826;53.572;10.170;2022-12-20T15:11:43;11.48;;;5.03;;
46090;SDS011;31826;53.572;10.170;2022-12-20T15:14:26;10.93;;;4.85;;
46090;SDS011;31826;53.572;10.170;2022-12-20T15:16:56;11.30;;;5.07;;
46090;SDS011;31826;53.572;10.170;2022-12-20T15:19:22;12.70;;;5.68;;
46090;SDS011;31826;53.572;10.170;2022-12-20T15:21:48;11.38;;;5.13;;
46090;SDS011;31826;53.572;10.170;2022-12-20T15:24:16;13.77;;;5.70;;
46090;SDS011;31826;53.572;10.170;2022-12-20T15:26:45;14.55;;;5.85;;
46090;SDS011;31826;53.572;10.170;2022-12-20T15:29:21;13.65;;;5.30;;
46090;SDS011;31826;53.572;10.170;2022-12-20T15:31:52;12.23;;;5.60;;
46090;SDS011;31826;53.572;10.170;2022-12-20T15:34:35;14.00;;;6.38;;
46090;SDS011;31826;53.572;10.170;2022-12-20T15:37:02;13.85;;;6.65;;
46090;SDS011;31826;53.572;10.170;2022-12-20T15:39:29;12.43;;;5.38;;
46090;SDS011;31826;53.572;10.170;2022-12-20T15:41:55;10.25;;;5.13;;
46090;SDS011;31826;53.572;10.170;2022-12-20T15:44:25;12.35;;;6.28;;
46090;SDS011;31826;53.572;10.170;2022-12-20T15:46:52;13.00;;;5.30;;
46090;SDS011;31826;53.572;10.170;2022-12-20T15:49:18;11.57;;;5.30;;
46090;SDS011;31826;53.572;10.170;2022-12-20T15:51:55;11.13;;;5.53;;
46090;SDS011;31826;53.572;10.170;2022-12-20T15:56:58;12.07;;;5.53;;
46090;SDS011;31826;53.572;10.170;2022-12-20T15:59:31;13.33;;;5.47;;
46090;SDS011;31826;53.572;10.170;2022-12-20T16:01:57;14.18;;;5.88;;
46090;SDS011;31826;53.572;10.170;2022-12-20T16:04:24;16.17;;;7.53;;
46090;SDS011;31826;53.572;10.170;2022-12-20T16:06:50;17.58;;;7.38;;
46090;SDS011;31826;53.572;10.170;2022-12-20T16:09:19;17.35;;;7.38;;
46090;SDS011;31826;53.572;10.170;2022-12-20T16:11:45;18.33;;;7.57;;
46090;SDS011;31826;53.572;10.170;2022-12-20T16:14:14;14.88;;;6.35;;
46090;SDS011;31826;53.572;10.170;2022-12-20T16:16:41;14.98;;;5.80;;
46090;SDS011;31826;53.572;10.170;2022-12-20T16:19:08;18.85;;;6.15;;
46090;SDS011;31826;53.572;10.170;2022-12-20T16:21:35;14.85;;;6.43;;
46090;SDS011;31826;53.572;10.170;2022-12-20T16:24:14;16.10;;;6.70;;
46090;SDS011;31826;53.572;10.170;2022-12-20T16:26:41;16.40;;;7.55;;
46090;SDS011;31826;53.572;10.170;2022-12-20T16:29:07;16.75;;;6.13;;
46090;SDS011;31826;53.572;10.170;2022-12-20T16:31:36;12.77;;;5.90;;
46090;SDS011;31826;53.572;10.170;2022-12-20T16:34:24;13.75;;;6.32;;
46090;SDS011;31826;53.572;10.170;2022-12-20T16:36:49;12.88;;;6.30;;
46090;SDS011;31826;53.572;10.170;2022-12-20T16:39:16;14.43;;;6.47;;
46090;SDS011;31826;53.572;10.170;2022-12-20T16:41:41;14.03;;;6.33;;
46090;SDS011;31826;53.572;10.170;2022-12-20T16:44:12;12.53;;;6.00;;
46090;SDS011;31826;53.572;10.170;2022-12-20T16:46:39;15.07;;;7.25;;